sensor_id;sensor_type;location;lat;lon;timestamp;P1;durP1;ratioP1;P2;durP2;ratioP2
50900;SDS011;36879;51.416;6.678;2022-08-30T00:00:39;6.28;;;2.53;;
50900;SDS011;36879;51.416;6.678;2022-08-30T00:03:24;4.28;;;2.70;;
50900;SDS011;36879;51.416;6.678;2022-08-30T00:05:51;8.50;;;2.90;;
50900;SDS011;36879;51.416;6.678;2022-08-30T00:08:17;6.20;;;2.92;;
50900;SDS011;36879;51.416;6.678;2022-08-30T00:10:43;6.95;;;2.17;;
50900;SDS011;36879;51.416;6.678;2022-08-30T00:13:10;5.07;;;2.35;;
50900;SDS011;36879;51.416;6.678;2022-08-30T00:15:37;8.15;;;3.20;;
50900;SDS011;36879;51.416;6.678;2022-08-30T00:18:04;7.05;;;3.10;;
50900;SDS011;36879;51.416;6.678;2022-08-30T00:20:33;9.75;;;2.55;;
50900;SDS011;36879;51.416;6.678;2022-08-30T00:23:00;7.88;;;2.38;;
50900;SDS011;36879;51.416;6.678;2022-08-30T00:25:26;7.38;;;2.35;;
50900;SDS011;36879;51.416;6.678;2022-08-30T00:27:53;13.50;;;3.20;;
50900;SDS011;36879;51.416;6.678;2022-08-30T00:30:19;6.18;;;2.40;;
50900;SDS011;36879;51.416;6.678;2022-08-30T00:32:45;6.97;;;2.63;;
50900;SDS011;36879;51.416;6.678;2022-08-30T00:35:12;6.30;;;2.65;;
50900;SDS011;36879;51.416;6.678;2022-08-30T00:37:39;8.50;;;3.10;;
50900;SDS011;36879;51.416;6.678;2022-08-30T00:40:06;4.50;;;2.67;;
50900;SDS011;36879;51.416;6.678;2022-08-30T00:42:33;5.05;;;2.28;;
50900;SDS011;36879;51.416;6.678;2022-08-30T00:44:59;4.07;;;2.53;;
50900;SDS011;36879;51.416;6.678;2022-08-30T00:47:26;6.68;;;2.45;;
50900;SDS011;36879;51.416;6.678;2022-08-30T00:49:53;9.88;;;3.15;;
50900;SDS011;36879;51.416;6.678;2022-08-30T00:52:21;6.55;;;2.80;;
50900;SDS011;36879;51.416;6.678;2022-08-30T00:54:48;4.35;;;2.38;;
50900;SDS011;36879;51.416;6.678;2022-08-30T00:57:16;5.28;;;2.03;;
50900;SDS011;36879;51.416;6.678;2022-08-30T00:59:43;9.77;;;2.53;;
50900;SDS011;36879;51.416;6.678;2022-08-30T01:02:10;3.90;;;2.53;;
50900;SDS011;36879;51.416;6.678;2022-08-30T01:04:36;6.25;;;2.13;;
50900;SDS011;36879;51.416;6.678;2022-08-30T01:07:04;5.63;;;2.70;;
50900;SDS011;36879;51.416;6.678;2022-08-30T01:09:32;8.48;;;2.70;;
50900;SDS011;36879;51.416;6.678;2022-08-30T01:11:58;3.88;;;2.15;;
50900;SDS011;36879;51.416;6.678;2022-08-30T01:14:25;5.18;;;2.10;;
50900;SDS011;36879;51.416;6.678;2022-08-30T01:16:51;4.90;;;2.38;;
50900;SDS011;36879;51.416;6.678;2022-08-30T01:19:27;4.57;;;2.60;;
50900;SDS011;36879;51.416;6.678;2022-08-30T01:21:59;4.35;;;2.22;;
50900;SDS011;36879;51.416;6.678;2022-08-30T01:24:26;7.72;;;2.53;;
50900;SDS011;36879;51.416;6.678;2022-08-30T01:26:52;5.45;;;2.28;;
50900;SDS011;36879;51.416;6.678;2022-08-30T01:29:19;4.20;;;2.42;;
50900;SDS011;36879;51.416;6.678;2022-08-30T01:31:46;4.75;;;2.33;;
50900;SDS011;36879;51.416;6.678;2022-08-30T01:34:13;7.25;;;2.70;;
50900;SDS011;36879;51.416;6.678;2022-08-30T01:36:39;5.45;;;2.10;;
50900;SDS011;36879;51.416;6.678;2022-08-30T01:39:07;6.90;;;2.70;;
50900;SDS011;36879;51.416;6.678;2022-08-30T01:41:35;4.75;;;2.22;;
50900;SDS011;36879;51.416;6.678;2022-08-30T01:44:03;5.43;;;2.42;;
50900;SDS011;36879;51.416;6.678;2022-08-30T01:46:31;4.65;;;2.08;;
50900;SDS011;36879;51.416;6.678;2022-08-30T01:49:01;6.10;;;2.80;;
50900;SDS011;36879;51.416;6.678;2022-08-30T01:51:27;3.72;;;1.98;;
50900;SDS011;36879;51.416;6.678;2022-08-30T01:53:54;5.60;;;3.15;;
50900;SDS011;36879;51.416;6.678;2022-08-30T01:56:20;2.60;;;2.05;;
50900;SDS011;36879;51.416;6.678;2022-08-30T01:58:47;4.85;;;2.22;;
50900;SDS011;36879;51.416;6.678;2022-08-30T02:01:14;5.68;;;2.40;;
50900;SDS011;36879;51.416;6.678;2022-08-30T02:03:42;4.72;;;1.98;;
50900;SDS011;36879;51.416;6.678;2022-08-30T02:06:09;5.25;;;2.60;;
50900;SDS011;36879;51.416;6.678;2022-08-30T02:08:36;4.47;;;2.75;;
50900;SDS011;36879;51.416;6.678;2022-08-30T02:11:04;9.43;;;2.33;;
50900;SDS011;36879;51.416;6.678;2022-08-30T02:13:31;6.80;;;2.80;;
50900;SDS011;36879;51.416;6.678;2022-08-30T02:15:57;3.72;;;2.17;;
50900;SDS011;36879;51.416;6.678;2022-08-30T02:18:24;5.20;;;2.60;;
50900;SDS011;36879;51.416;6.678;2022-08-30T02:20:51;5.60;;;2.63;;
50900;SDS011;36879;51.416;6.678;2022-08-30T02:23:17;6.20;;;3.20;;
50900;SDS011;36879;51.416;6.678;2022-08-30T02:25:43;5.68;;;2.63;;
50900;SDS011;36879;51.416;6.678;2022-08-30T02:28:09;6.25;;;2.35;;
50900;SDS011;36879;51.416;6.678;2022-08-30T02:30:36;2.83;;;2.13;;
50900;SDS011;36879;51.416;6.678;2022-08-30T02:33:02;4.97;;;2.47;;
50900;SDS011;36879;51.416;6.678;2022-08-30T02:35:28;5.20;;;2.38;;
50900;SDS011;36879;51.416;6.678;2022-08-30T02:37:54;8.27;;;2.88;;
50900;SDS011;36879;51.416;6.678;2022-08-30T02:40:20;3.75;;;2.20;;
50900;SDS011;36879;51.416;6.678;2022-08-30T02:42:47;4.40;;;2.25;;
50900;SDS011;36879;51.416;6.678;2022-08-30T02:45:13;3.17;;;2.05;;
50900;SDS011;36879;51.416;6.678;2022-08-30T02:47:40;4.75;;;2.90;;
50900;SDS011;36879;51.416;6.678;2022-08-30T02:50:07;4.60;;;2.13;;
50900;SDS011;36879;51.416;6.678;2022-08-30T02:52:34;6.40;;;2.47;;
50900;SDS011;36879;51.416;6.678;2022-08-30T02:55:00;4.22;;;2.35;;
50900;SDS011;36879;51.416;6.678;2022-08-30T02:57:26;6.03;;;2.28;;
50900;SDS011;36879;51.416;6.678;2022-08-30T02:59:52;4.25;;;2.67;;
50900;SDS011;36879;51.416;6.678;2022-08-30T03:02:18;5.68;;;3.05;;
50900;SDS011;36879;51.416;6.678;2022-08-30T03:04:46;3.58;;;2.28;;
50900;SDS011;36879;51.416;6.678;2022-08-30T03:07:13;7.93;;;2.95;;
50900;SDS011;36879;51.416;6.678;2022-08-30T03:09:39;5.20;;;3.00;;
50900;SDS011;36879;51.416;6.678;2022-08-30T03:12:06;4.35;;;2.72;;
50900;SDS011;36879;51.416;6.678;2022-08-30T03:14:33;3.38;;;2.42;;
50900;SDS011;36879;51.416;6.678;2022-08-30T03:17:00;6.85;;;3.20;;
50900;SDS011;36879;51.416;6.678;2022-08-30T03:19:27;6.93;;;2.33;;
50900;SDS011;36879;51.416;6.678;2022-08-30T03:21:53;3.75;;;2.50;;
50900;SDS011;36879;51.416;6.678;2022-08-30T03:24:19;5.28;;;2.85;;
50900;SDS011;36879;51.416;6.678;2022-08-30T03:26:45;6.20;;;3.30;;
50900;SDS011;36879;51.416;6.678;2022-08-30T03:29:11;7.88;;;3.20;;
50900;SDS011;36879;51.416;6.678;2022-08-30T03:31:38;3.78;;;2.55;;
50900;SDS011;36879;51.416;6.678;2022-08-30T03:34:04;4.15;;;2.78;;
50900;SDS011;36879;51.416;6.678;2022-08-30T03:36:30;3.15;;;2.03;;
50900;SDS011;36879;51.416;6.678;2022-08-30T03:38:56;6.43;;;2.70;;
50900;SDS011;36879;51.416;6.678;2022-08-30T03:41:23;5.07;;;2.47;;
50900;SDS011;36879;51.416;6.678;2022-08-30T03:43:49;4.45;;;2.72;;
50900;SDS011;36879;51.416;6.678;2022-08-30T03:46:15;4.10;;;2.55;;
50900;SDS011;36879;51.416;6.678;2022-08-30T03:48:41;4.20;;;2.45;;
50900;SDS011;36879;51.416;6.678;2022-08-30T03:51:08;6.80;;;2.70;;
50900;SDS011;36879;51.416;6.678;2022-08-30T03:53:34;4.70;;;2.58;;
50900;SDS011;36879;51.416;6.678;2022-08-30T03:56:00;3.28;;;2.65;;
50900;SDS011;36879;51.416;6.678;2022-08-30T03:58:26;4.47;;;2.58;;
50900;SDS011;36879;51.416;6.678;2022-08-30T04:00:52;5.22;;;2.80;;
50900;SDS011;36879;51.416;6.678;2022-08-30T04:03:18;7.28;;;3.00;;
50900;SDS011;36879;51.416;6.678;2022-08-30T04:05:49;4.22;;;2.85;;
50900;SDS011;36879;51.416;6.678;2022-08-30T04:08:16;4.80;;;2.60;;
50900;SDS011;36879;51.416;6.678;2022-08-30T04:10:42;7.68;;;3.25;;
50900;SDS011;36879;51.416;6.678;2022-08-30T04:13:08;5.90;;;2.72;;
50900;SDS011;36879;51.416;6.678;2022-08-30T04:15:34;5.90;;;2.83;;
50900;SDS011;36879;51.416;6.678;2022-08-30T04:18:00;3.67;;;2.42;;
50900;SDS011;36879;51.416;6.678;2022-08-30T04:20:26;5.35;;;3.58;;
50900;SDS011;36879;51.416;6.678;2022-08-30T04:22:52;5.20;;;2.28;;
50900;SDS011;36879;51.416;6.678;2022-08-30T04:25:18;11.90;;;3.78;;
50900;SDS011;36879;51.416;6.678;2022-08-30T04:27:44;4.32;;;2.58;;
50900;SDS011;36879;51.416;6.678;2022-08-30T04:30:11;3.67;;;2.95;;
50900;SDS011;36879;51.416;6.678;2022-08-30T04:32:37;8.88;;;2.92;;
50900;SDS011;36879;51.416;6.678;2022-08-30T04:35:03;5.43;;;2.95;;
50900;SDS011;36879;51.416;6.678;2022-08-30T04:37:30;7.00;;;3.13;;
50900;SDS011;36879;51.416;6.678;2022-08-30T04:39:56;5.25;;;3.47;;
50900;SDS011;36879;51.416;6.678;2022-08-30T04:42:24;9.20;;;4.68;;
50900;SDS011;36879;51.416;6.678;2022-08-30T04:44:54;11.50;;;4.93;;
50900;SDS011;36879;51.416;6.678;2022-08-30T04:47:20;9.43;;;4.70;;
50900;SDS011;36879;51.416;6.678;2022-08-30T04:49:46;7.30;;;4.68;;
50900;SDS011;36879;51.416;6.678;2022-08-30T04:52:12;8.77;;;5.07;;
50900;SDS011;36879;51.416;6.678;2022-08-30T04:54:38;11.18;;;4.75;;
50900;SDS011;36879;51.416;6.678;2022-08-30T04:57:05;7.75;;;3.90;;
50900;SDS011;36879;51.416;6.678;2022-08-30T04:59:31;9.85;;;4.50;;
50900;SDS011;36879;51.416;6.678;2022-08-30T05:01:58;11.15;;;4.72;;
50900;SDS011;36879;51.416;6.678;2022-08-30T05:04:24;6.97;;;3.60;;
50900;SDS011;36879;51.416;6.678;2022-08-30T05:06:50;9.57;;;3.50;;
50900;SDS011;36879;51.416;6.678;2022-08-30T05:09:16;9.10;;;4.90;;
50900;SDS011;36879;51.416;6.678;2022-08-30T05:11:43;9.35;;;3.83;;
50900;SDS011;36879;51.416;6.678;2022-08-30T05:14:10;7.22;;;3.50;;
50900;SDS011;36879;51.416;6.678;2022-08-30T05:16:36;10.13;;;3.97;;
50900;SDS011;36879;51.416;6.678;2022-08-30T05:19:02;9.75;;;4.53;;
50900;SDS011;36879;51.416;6.678;2022-08-30T05:21:29;9.07;;;3.88;;
50900;SDS011;36879;51.416;6.678;2022-08-30T05:23:56;12.48;;;3.72;;
50900;SDS011;36879;51.416;6.678;2022-08-30T05:26:24;11.55;;;5.05;;
50900;SDS011;36879;51.416;6.678;2022-08-30T05:28:51;8.27;;;3.22;;
50900;SDS011;36879;51.416;6.678;2022-08-30T05:31:18;6.45;;;3.40;;
50900;SDS011;36879;51.416;6.678;2022-08-30T05:33:44;8.38;;;3.58;;
50900;SDS011;36879;51.416;6.678;2022-08-30T05:36:11;11.73;;;3.72;;
50900;SDS011;36879;51.416;6.678;2022-08-30T05:38:38;7.60;;;3.28;;
50900;SDS011;36879;51.416;6.678;2022-08-30T05:41:04;9.02;;;4.22;;
50900;SDS011;36879;51.416;6.678;2022-08-30T05:43:30;7.20;;;3.60;;
50900;SDS011;36879;51.416;6.678;2022-08-30T05:46:00;18.38;;;4.25;;
50900;SDS011;36879;51.416;6.678;2022-08-30T05:48:27;10.85;;;4.15;;
50900;SDS011;36879;51.416;6.678;2022-08-30T05:51:03;7.50;;;3.97;;
50900;SDS011;36879;51.416;6.678;2022-08-30T05:53:29;9.13;;;4.30;;
50900;SDS011;36879;51.416;6.678;2022-08-30T05:55:55;9.45;;;3.60;;
50900;SDS011;36879;51.416;6.678;2022-08-30T05:58:22;12.52;;;4.80;;
50900;SDS011;36879;51.416;6.678;2022-08-30T06:00:48;11.18;;;3.60;;
50900;SDS011;36879;51.416;6.678;2022-08-30T06:03:14;7.53;;;3.85;;
50900;SDS011;36879;51.416;6.678;2022-08-30T06:05:40;6.38;;;3.60;;
50900;SDS011;36879;51.416;6.678;2022-08-30T06:08:06;6.72;;;3.90;;
50900;SDS011;36879;51.416;6.678;2022-08-30T06:10:32;6.20;;;3.92;;
50900;SDS011;36879;51.416;6.678;2022-08-30T06:12:58;5.53;;;3.20;;
50900;SDS011;36879;51.416;6.678;2022-08-30T06:15:24;5.60;;;4.13;;
50900;SDS011;36879;51.416;6.678;2022-08-30T06:17:50;7.15;;;4.35;;
50900;SDS011;36879;51.416;6.678;2022-08-30T06:20:16;9.98;;;4.70;;
50900;SDS011;36879;51.416;6.678;2022-08-30T06:22:44;12.05;;;3.88;;
50900;SDS011;36879;51.416;6.678;2022-08-30T06:25:10;8.88;;;3.88;;
50900;SDS011;36879;51.416;6.678;2022-08-30T06:27:36;10.48;;;4.22;;
50900;SDS011;36879;51.416;6.678;2022-08-30T06:30:03;11.05;;;4.60;;
50900;SDS011;36879;51.416;6.678;2022-08-30T06:32:32;5.22;;;3.38;;
50900;SDS011;36879;51.416;6.678;2022-08-30T06:34:58;6.43;;;3.60;;
50900;SDS011;36879;51.416;6.678;2022-08-30T06:37:24;9.02;;;4.07;;
50900;SDS011;36879;51.416;6.678;2022-08-30T06:39:50;6.95;;;4.40;;
50900;SDS011;36879;51.416;6.678;2022-08-30T06:42:16;8.18;;;4.25;;
50900;SDS011;36879;51.416;6.678;2022-08-30T06:44:42;8.77;;;3.90;;
50900;SDS011;36879;51.416;6.678;2022-08-30T06:47:09;4.88;;;3.50;;
50900;SDS011;36879;51.416;6.678;2022-08-30T06:49:35;6.32;;;3.53;;
50900;SDS011;36879;51.416;6.678;2022-08-30T06:52:02;6.63;;;3.80;;
50900;SDS011;36879;51.416;6.678;2022-08-30T06:54:28;4.75;;;3.58;;
50900;SDS011;36879;51.416;6.678;2022-08-30T06:56:54;6.63;;;3.42;;
50900;SDS011;36879;51.416;6.678;2022-08-30T06:59:20;16.25;;;5.22;;
50900;SDS011;36879;51.416;6.678;2022-08-30T07:01:46;6.75;;;4.13;;
50900;SDS011;36879;51.416;6.678;2022-08-30T07:04:12;8.80;;;4.00;;
50900;SDS011;36879;51.416;6.678;2022-08-30T07:06:38;6.03;;;3.40;;
50900;SDS011;36879;51.416;6.678;2022-08-30T07:09:04;5.63;;;3.63;;
50900;SDS011;36879;51.416;6.678;2022-08-30T07:11:32;7.45;;;4.07;;
50900;SDS011;36879;51.416;6.678;2022-08-30T07:13:59;4.70;;;3.25;;
50900;SDS011;36879;51.416;6.678;2022-08-30T07:16:26;6.03;;;3.80;;
50900;SDS011;36879;51.416;6.678;2022-08-30T07:18:52;6.85;;;3.90;;
50900;SDS011;36879;51.416;6.678;2022-08-30T07:21:26;9.15;;;3.80;;
50900;SDS011;36879;51.416;6.678;2022-08-30T07:23:53;6.30;;;3.63;;
50900;SDS011;36879;51.416;6.678;2022-08-30T07:26:21;11.40;;;4.03;;
50900;SDS011;36879;51.416;6.678;2022-08-30T07:28:48;6.38;;;3.22;;
50900;SDS011;36879;51.416;6.678;2022-08-30T07:31:15;4.85;;;3.50;;
50900;SDS011;36879;51.416;6.678;2022-08-30T07:33:41;5.90;;;3.55;;
50900;SDS011;36879;51.416;6.678;2022-08-30T07:36:07;7.97;;;3.40;;
50900;SDS011;36879;51.416;6.678;2022-08-30T07:38:34;6.65;;;4.10;;
50900;SDS011;36879;51.416;6.678;2022-08-30T07:41:00;4.78;;;3.28;;
50900;SDS011;36879;51.416;6.678;2022-08-30T07:43:29;5.78;;;3.10;;
50900;SDS011;36879;51.416;6.678;2022-08-30T07:46:03;4.72;;;3.35;;
50900;SDS011;36879;51.416;6.678;2022-08-30T07:48:29;7.60;;;3.35;;
50900;SDS011;36879;51.416;6.678;2022-08-30T07:50:56;6.93;;;3.83;;
50900;SDS011;36879;51.416;6.678;2022-08-30T07:53:22;5.45;;;3.67;;
50900;SDS011;36879;51.416;6.678;2022-08-30T07:55:48;8.15;;;3.08;;
50900;SDS011;36879;51.416;6.678;2022-08-30T07:58:14;7.80;;;2.92;;
50900;SDS011;36879;51.416;6.678;2022-08-30T08:00:40;5.82;;;3.08;;
50900;SDS011;36879;51.416;6.678;2022-08-30T08:03:07;11.52;;;3.85;;
50900;SDS011;36879;51.416;6.678;2022-08-30T08:05:40;4.97;;;2.72;;
50900;SDS011;36879;51.416;6.678;2022-08-30T08:08:06;9.00;;;2.58;;
50900;SDS011;36879;51.416;6.678;2022-08-30T08:10:32;4.90;;;2.90;;
50900;SDS011;36879;51.416;6.678;2022-08-30T08:12:58;6.72;;;2.88;;
50900;SDS011;36879;51.416;6.678;2022-08-30T08:15:24;6.72;;;2.85;;
50900;SDS011;36879;51.416;6.678;2022-08-30T08:17:51;5.78;;;2.90;;
50900;SDS011;36879;51.416;6.678;2022-08-30T08:20:17;10.35;;;2.70;;
50900;SDS011;36879;51.416;6.678;2022-08-30T08:22:43;6.35;;;2.45;;
50900;SDS011;36879;51.416;6.678;2022-08-30T08:25:09;10.38;;;4.55;;
50900;SDS011;36879;51.416;6.678;2022-08-30T08:27:35;8.20;;;2.72;;
50900;SDS011;36879;51.416;6.678;2022-08-30T08:30:02;6.70;;;2.83;;
50900;SDS011;36879;51.416;6.678;2022-08-30T08:32:28;4.90;;;2.30;;
50900;SDS011;36879;51.416;6.678;2022-08-30T08:34:54;5.30;;;2.47;;
50900;SDS011;36879;51.416;6.678;2022-08-30T08:37:20;6.85;;;2.78;;
50900;SDS011;36879;51.416;6.678;2022-08-30T08:39:46;5.38;;;2.30;;
50900;SDS011;36879;51.416;6.678;2022-08-30T08:42:18;7.03;;;2.03;;
50900;SDS011;36879;51.416;6.678;2022-08-30T08:49:54;7.82;;;2.60;;
50900;SDS011;36879;51.416;6.678;2022-08-30T08:52:23;7.22;;;2.53;;
50900;SDS011;36879;51.416;6.678;2022-08-30T08:55:20;12.57;;;3.28;;
50900;SDS011;36879;51.416;6.678;2022-08-30T08:57:47;7.60;;;3.65;;
50900;SDS011;36879;51.416;6.678;2022-08-30T09:00:13;6.95;;;1.90;;
50900;SDS011;36879;51.416;6.678;2022-08-30T09:02:43;3.10;;;1.75;;
50900;SDS011;36879;51.416;6.678;2022-08-30T09:05:12;2.22;;;1.67;;
50900;SDS011;36879;51.416;6.678;2022-08-30T09:07:42;5.65;;;1.73;;
50900;SDS011;36879;51.416;6.678;2022-08-30T09:10:10;3.15;;;1.73;;
50900;SDS011;36879;51.416;6.678;2022-08-30T09:12:36;4.78;;;1.70;;
50900;SDS011;36879;51.416;6.678;2022-08-30T09:15:11;2.38;;;1.10;;
50900;SDS011;36879;51.416;6.678;2022-08-30T09:20:23;4.68;;;1.55;;
50900;SDS011;36879;51.416;6.678;2022-08-30T09:22:49;2.47;;;1.60;;
50900;SDS011;36879;51.416;6.678;2022-08-30T09:27:48;4.50;;;1.70;;
50900;SDS011;36879;51.416;6.678;2022-08-30T09:32:41;5.07;;;1.60;;
50900;SDS011;36879;51.416;6.678;2022-08-30T09:35:11;3.30;;;1.40;;
50900;SDS011;36879;51.416;6.678;2022-08-30T09:37:39;3.58;;;1.50;;
50900;SDS011;36879;51.416;6.678;2022-08-30T09:40:13;3.70;;;1.27;;
50900;SDS011;36879;51.416;6.678;2022-08-30T09:42:39;2.15;;;1.23;;
50900;SDS011;36879;51.416;6.678;2022-08-30T09:45:09;7.80;;;1.83;;
50900;SDS011;36879;51.416;6.678;2022-08-30T09:47:43;7.57;;;2.10;;
50900;SDS011;36879;51.416;6.678;2022-08-30T09:50:10;3.47;;;1.58;;
50900;SDS011;36879;51.416;6.678;2022-08-30T10:00:01;2.95;;;1.48;;
50900;SDS011;36879;51.416;6.678;2022-08-30T10:02:35;3.42;;;1.50;;
50900;SDS011;36879;51.416;6.678;2022-08-30T10:07:38;2.22;;;1.30;;
50900;SDS011;36879;51.416;6.678;2022-08-30T10:10:10;2.28;;;1.40;;
50900;SDS011;36879;51.416;6.678;2022-08-30T10:15:31;2.95;;;1.40;;
50900;SDS011;36879;51.416;6.678;2022-08-30T10:23:27;4.88;;;1.60;;
50900;SDS011;36879;51.416;6.678;2022-08-30T10:25:55;4.53;;;1.45;;
50900;SDS011;36879;51.416;6.678;2022-08-30T10:30:53;5.00;;;1.58;;
50900;SDS011;36879;51.416;6.678;2022-08-30T10:33:22;5.70;;;1.67;;
50900;SDS011;36879;51.416;6.678;2022-08-30T10:35:54;9.63;;;2.22;;
50900;SDS011;36879;51.416;6.678;2022-08-30T10:38:26;22.15;;;5.05;;
50900;SDS011;36879;51.416;6.678;2022-08-30T10:40:58;18.60;;;3.45;;
50900;SDS011;36879;51.416;6.678;2022-08-30T10:46:08;4.50;;;1.35;;
50900;SDS011;36879;51.416;6.678;2022-08-30T10:48:37;4.80;;;1.50;;
50900;SDS011;36879;51.416;6.678;2022-08-30T10:51:08;13.65;;;2.85;;
50900;SDS011;36879;51.416;6.678;2022-08-30T10:53:55;26.05;;;5.70;;
50900;SDS011;36879;51.416;6.678;2022-08-30T10:56:23;13.10;;;2.80;;
50900;SDS011;36879;51.416;6.678;2022-08-30T10:58:50;4.90;;;2.35;;
50900;SDS011;36879;51.416;6.678;2022-08-30T11:14:27;7.43;;;1.90;;
50900;SDS011;36879;51.416;6.678;2022-08-30T11:16:54;4.00;;;1.30;;
50900;SDS011;36879;51.416;6.678;2022-08-30T11:21:47;6.47;;;1.58;;
50900;SDS011;36879;51.416;6.678;2022-08-30T11:24:17;6.13;;;1.52;;
50900;SDS011;36879;51.416;6.678;2022-08-30T11:31:56;3.88;;;1.27;;
50900;SDS011;36879;51.416;6.678;2022-08-30T11:37:08;2.65;;;1.13;;
50900;SDS011;36879;51.416;6.678;2022-08-30T11:42:24;6.43;;;1.50;;
50900;SDS011;36879;51.416;6.678;2022-08-30T11:44:51;2.75;;;1.15;;
50900;SDS011;36879;51.416;6.678;2022-08-30T11:50:11;4.03;;;1.20;;
50900;SDS011;36879;51.416;6.678;2022-08-30T11:52:45;5.38;;;1.27;;
50900;SDS011;36879;51.416;6.678;2022-08-30T11:55:24;2.55;;;1.08;;
50900;SDS011;36879;51.416;6.678;2022-08-30T11:58:05;13.93;;;2.63;;
50900;SDS011;36879;51.416;6.678;2022-08-30T12:00:36;1.75;;;1.20;;
50900;SDS011;36879;51.416;6.678;2022-08-30T12:05:44;2.67;;;1.00;;
50900;SDS011;36879;51.416;6.678;2022-08-30T12:16:10;3.10;;;1.58;;
50900;SDS011;36879;51.416;6.678;2022-08-30T12:21:26;3.88;;;1.20;;
50900;SDS011;36879;51.416;6.678;2022-08-30T12:26:23;4.90;;;1.20;;
50900;SDS011;36879;51.416;6.678;2022-08-30T12:29:08;3.17;;;1.10;;
50900;SDS011;36879;51.416;6.678;2022-08-30T12:31:42;2.65;;;1.10;;
50900;SDS011;36879;51.416;6.678;2022-08-30T12:34:14;3.92;;;1.45;;
50900;SDS011;36879;51.416;6.678;2022-08-30T12:36:49;3.83;;;2.00;;
50900;SDS011;36879;51.416;6.678;2022-08-30T12:39:20;5.60;;;1.40;;
50900;SDS011;36879;51.416;6.678;2022-08-30T12:41:46;1.48;;;1.00;;
50900;SDS011;36879;51.416;6.678;2022-08-30T12:44:17;5.63;;;1.23;;
50900;SDS011;36879;51.416;6.678;2022-08-30T12:46:44;1.88;;;1.17;;
50900;SDS011;36879;51.416;6.678;2022-08-30T12:49:13;5.40;;;1.77;;
50900;SDS011;36879;51.416;6.678;2022-08-30T12:51:40;6.47;;;1.67;;
50900;SDS011;36879;51.416;6.678;2022-08-30T12:54:28;3.90;;;1.40;;
50900;SDS011;36879;51.416;6.678;2022-08-30T12:56:58;1.83;;;1.20;;
50900;SDS011;36879;51.416;6.678;2022-08-30T13:02:11;4.43;;;1.52;;
50900;SDS011;36879;51.416;6.678;2022-08-30T13:04:37;4.10;;;1.50;;
50900;SDS011;36879;51.416;6.678;2022-08-30T13:07:03;1.83;;;1.00;;
50900;SDS011;36879;51.416;6.678;2022-08-30T13:09:30;3.55;;;2.63;;
50900;SDS011;36879;51.416;6.678;2022-08-30T13:12:01;3.90;;;2.25;;
50900;SDS011;36879;51.416;6.678;2022-08-30T13:17:38;3.65;;;1.35;;
50900;SDS011;36879;51.416;6.678;2022-08-30T13:19:41;2.17;;;1.13;;
50900;SDS011;36879;51.416;6.678;2022-08-30T13:24:52;3.47;;;1.30;;
50900;SDS011;36879;51.416;6.678;2022-08-30T13:27:18;8.75;;;1.50;;
50900;SDS011;36879;51.416;6.678;2022-08-30T13:29:45;3.92;;;1.40;;
50900;SDS011;36879;51.416;6.678;2022-08-30T13:32:11;3.78;;;1.08;;
50900;SDS011;36879;51.416;6.678;2022-08-30T13:34:38;6.82;;;1.98;;
50900;SDS011;36879;51.416;6.678;2022-08-30T13:37:04;1.63;;;1.13;;
50900;SDS011;36879;51.416;6.678;2022-08-30T13:39:31;2.38;;;1.25;;
50900;SDS011;36879;51.416;6.678;2022-08-30T13:41:57;4.00;;;1.58;;
50900;SDS011;36879;51.416;6.678;2022-08-30T13:44:23;7.85;;;1.40;;
50900;SDS011;36879;51.416;6.678;2022-08-30T13:46:51;3.50;;;1.50;;
50900;SDS011;36879;51.416;6.678;2022-08-30T13:49:18;2.67;;;1.15;;
50900;SDS011;36879;51.416;6.678;2022-08-30T13:51:45;3.38;;;1.50;;
50900;SDS011;36879;51.416;6.678;2022-08-30T13:54:12;2.60;;;1.38;;
50900;SDS011;36879;51.416;6.678;2022-08-30T13:56:38;2.65;;;1.23;;
50900;SDS011;36879;51.416;6.678;2022-08-30T13:59:04;5.47;;;1.75;;
50900;SDS011;36879;51.416;6.678;2022-08-30T14:01:31;3.13;;;1.10;;
50900;SDS011;36879;51.416;6.678;2022-08-30T14:03:57;1.85;;;1.20;;
50900;SDS011;36879;51.416;6.678;2022-08-30T14:06:23;2.13;;;1.20;;
50900;SDS011;36879;51.416;6.678;2022-08-30T14:08:49;2.67;;;1.25;;
50900;SDS011;36879;51.416;6.678;2022-08-30T14:11:16;2.72;;;1.25;;
50900;SDS011;36879;51.416;6.678;2022-08-30T14:13:43;2.53;;;1.55;;
50900;SDS011;36879;51.416;6.678;2022-08-30T14:16:09;5.07;;;2.05;;
50900;SDS011;36879;51.416;6.678;2022-08-30T14:18:35;3.88;;;1.88;;
50900;SDS011;36879;51.416;6.678;2022-08-30T14:21:02;3.80;;;1.20;;
50900;SDS011;36879;51.416;6.678;2022-08-30T14:23:28;4.30;;;1.50;;
50900;SDS011;36879;51.416;6.678;2022-08-30T14:25:55;5.43;;;1.30;;
50900;SDS011;36879;51.416;6.678;2022-08-30T14:28:23;3.40;;;1.08;;
50900;SDS011;36879;51.416;6.678;2022-08-30T14:30:52;2.83;;;1.40;;
50900;SDS011;36879;51.416;6.678;2022-08-30T14:33:18;3.83;;;1.85;;
50900;SDS011;36879;51.416;6.678;2022-08-30T14:35:44;4.65;;;1.48;;
50900;SDS011;36879;51.416;6.678;2022-08-30T14:38:10;2.70;;;1.27;;
50900;SDS011;36879;51.416;6.678;2022-08-30T14:40:37;3.05;;;1.02;;
50900;SDS011;36879;51.416;6.678;2022-08-30T14:43:04;6.25;;;1.20;;
50900;SDS011;36879;51.416;6.678;2022-08-30T14:45:30;2.28;;;1.10;;
50900;SDS011;36879;51.416;6.678;2022-08-30T14:47:56;2.60;;;1.20;;
50900;SDS011;36879;51.416;6.678;2022-08-30T14:50:22;7.93;;;1.40;;
50900;SDS011;36879;51.416;6.678;2022-08-30T14:52:49;5.45;;;1.40;;
50900;SDS011;36879;51.416;6.678;2022-08-30T14:55:15;4.82;;;1.23;;
50900;SDS011;36879;51.416;6.678;2022-08-30T14:57:41;5.88;;;1.20;;
50900;SDS011;36879;51.416;6.678;2022-08-30T15:00:09;2.53;;;1.00;;
50900;SDS011;36879;51.416;6.678;2022-08-30T15:02:36;3.10;;;1.40;;
50900;SDS011;36879;51.416;6.678;2022-08-30T15:05:02;1.95;;;1.27;;
50900;SDS011;36879;51.416;6.678;2022-08-30T15:07:28;3.05;;;1.30;;
50900;SDS011;36879;51.416;6.678;2022-08-30T15:09:54;5.65;;;1.70;;
50900;SDS011;36879;51.416;6.678;2022-08-30T15:12:20;6.55;;;1.70;;
50900;SDS011;36879;51.416;6.678;2022-08-30T15:14:46;4.25;;;1.70;;
50900;SDS011;36879;51.416;6.678;2022-08-30T15:17:12;2.85;;;1.40;;
50900;SDS011;36879;51.416;6.678;2022-08-30T15:19:41;4.78;;;1.17;;
50900;SDS011;36879;51.416;6.678;2022-08-30T15:22:08;1.38;;;1.10;;
50900;SDS011;36879;51.416;6.678;2022-08-30T15:24:34;1.58;;;0.98;;
50900;SDS011;36879;51.416;6.678;2022-08-30T15:27:01;4.05;;;1.42;;
50900;SDS011;36879;51.416;6.678;2022-08-30T15:29:28;3.58;;;1.58;;
50900;SDS011;36879;51.416;6.678;2022-08-30T15:31:54;2.53;;;1.20;;
50900;SDS011;36879;51.416;6.678;2022-08-30T15:34:21;2.45;;;1.42;;
50900;SDS011;36879;51.416;6.678;2022-08-30T15:36:49;1.55;;;0.90;;
50900;SDS011;36879;51.416;6.678;2022-08-30T15:39:16;3.85;;;1.27;;
50900;SDS011;36879;51.416;6.678;2022-08-30T15:41:42;3.05;;;1.27;;
50900;SDS011;36879;51.416;6.678;2022-08-30T15:44:09;2.42;;;1.38;;
50900;SDS011;36879;51.416;6.678;2022-08-30T15:46:37;3.38;;;1.27;;
50900;SDS011;36879;51.416;6.678;2022-08-30T15:49:04;2.28;;;1.27;;
50900;SDS011;36879;51.416;6.678;2022-08-30T15:51:31;1.67;;;1.00;;
50900;SDS011;36879;51.416;6.678;2022-08-30T15:53:58;2.40;;;1.52;;
50900;SDS011;36879;51.416;6.678;2022-08-30T15:56:24;2.85;;;1.05;;
50900;SDS011;36879;51.416;6.678;2022-08-30T15:58:50;1.75;;;1.00;;
50900;SDS011;36879;51.416;6.678;2022-08-30T16:01:16;3.22;;;1.40;;
50900;SDS011;36879;51.416;6.678;2022-08-30T16:03:42;2.65;;;1.00;;
50900;SDS011;36879;51.416;6.678;2022-08-30T16:06:32;2.13;;;1.23;;
50900;SDS011;36879;51.416;6.678;2022-08-30T16:08:56;2.90;;;1.17;;
50900;SDS011;36879;51.416;6.678;2022-08-30T16:11:22;2.78;;;1.17;;
50900;SDS011;36879;51.416;6.678;2022-08-30T16:13:49;3.20;;;1.20;;
50900;SDS011;36879;51.416;6.678;2022-08-30T16:16:16;3.35;;;1.42;;